Time;durP1;ratioP1;P1;durP2;ratioP2;P2;SDS_P1;SDS_P2;PMS_P1;PMS_P2;Temp;Humidity;BMP_temperature;BMP_pressure;BME280_temperature;BME280_humidity;BME280_pressure;Samples;Min_cycle;Max_cycle;Signal;HPM_P1;HPM_P2
2023/12/01 00:01:28;;;;;;;48.23;26.17;;;-3.00;99.90;;;;;;8369529;28;20205;-65
2023/12/01 00:05:30;;;;;;;49.50;27.03;;;-3.00;99.90;;;;;;8369240;28;20218;-64
2023/12/01 00:09:32;;;;;;;48.57;27.60;;;-3.00;99.90;;;;;;8368136;28;20185;-62
2023/12/01 00:13:33;;;;;;;54.13;29.90;;;-3.00;99.90;;;;;;8368565;28;20403;-63
2023/12/01 00:17:35;;;;;;;48.77;28.20;;;-3.00;99.90;;;;;;8372305;28;20301;-66
2023/12/01 00:21:36;;;;;;;58.07;27.73;;;-3.00;99.90;;;;;;8368898;28;20291;-67
2023/12/01 00:25:37;;;;;;;49.13;27.07;;;-2.90;99.90;;;;;;8366846;28;20179;-66
2023/12/01 00:29:38;;;;;;;55.87;29.17;;;-2.90;99.90;;;;;;8368644;28;20201;-66
2023/12/01 00:33:39;;;;;;;83.53;38.90;;;-3.00;99.90;;;;;;8366963;28;20220;-66
2023/12/01 00:37:41;;;;;;;66.00;34.97;;;-3.00;99.90;;;;;;8373061;28;20205;-66
2023/12/01 00:41:42;;;;;;;69.83;34.40;;;-2.90;99.90;;;;;;8376462;28;20313;-67
2023/12/01 00:45:43;;;;;;;95.60;43.27;;;-3.00;99.90;;;;;;8376309;28;20194;-66
2023/12/01 00:49:44;;;;;;;104.93;45.57;;;-3.00;99.90;;;;;;8378773;28;20181;-66
2023/12/01 00:53:46;;;;;;;90.60;43.13;;;-3.00;99.90;;;;;;8387536;28;20185;-66
2023/12/01 00:57:53;;;;;;;77.30;35.33;;;-2.90;99.90;;;;;;8368213;28;20205;-67
2023/12/01 01:01:54;;;;;;;60.93;31.40;;;-2.90;99.90;;;;;;8372424;28;20208;-66
2023/12/01 01:05:55;;;;;;;62.77;33.03;;;-2.80;99.90;;;;;;8372285;28;20210;-67
2023/12/01 01:09:56;;;;;;;56.07;30.77;;;-2.70;99.90;;;;;;8376035;28;20187;-66
2023/12/01 01:13:59;;;;;;;69.50;33.40;;;-2.70;99.90;;;;;;8373184;28;20604;-67
2023/12/01 01:18:01;;;;;;;68.57;33.63;;;-2.70;99.90;;;;;;8375022;28;20190;-67
2023/12/01 01:22:02;;;;;;;62.87;32.40;;;-2.60;99.90;;;;;;8372870;28;20188;-67
2023/12/01 01:26:02;;;;;;;62.93;32.60;;;-2.60;99.90;;;;;;8373920;28;20182;-67
2023/12/01 01:30:04;;;;;;;75.57;35.03;;;-2.60;99.90;;;;;;8373370;28;20301;-67
2023/12/01 01:34:05;;;;;;;64.37;32.67;;;-2.60;99.90;;;;;;8370427;28;20234;-67
2023/12/01 01:38:06;;;;;;;62.07;30.97;;;-2.60;99.90;;;;;;8365597;28;20193;-67
2023/12/01 01:42:08;;;;;;;62.90;31.87;;;-2.60;99.90;;;;;;8374184;28;20277;-68
2023/12/01 01:46:11;;;;;;;55.30;30.00;;;-2.50;99.90;;;;;;8370607;28;20289;-68
2023/12/01 01:50:13;;;;;;;62.80;30.77;;;-2.50;99.90;;;;;;8369395;28;20213;-67
2023/12/01 01:54:14;;;;;;;63.40;33.17;;;-2.50;99.90;;;;;;8371919;28;20446;-68
2023/12/01 01:58:15;;;;;;;76.40;37.77;;;-2.50;99.90;;;;;;8370698;28;20239;-67
2023/12/01 02:02:16;;;;;;;83.93;40.10;;;-2.40;99.90;;;;;;8363517;28;20205;-67
2023/12/01 02:06:17;;;;;;;73.73;39.23;;;-2.40;99.90;;;;;;8369657;28;20183;-67
2023/12/01 02:10:17;;;;;;;83.90;41.80;;;-2.40;99.90;;;;;;8366662;28;20259;-67
2023/12/01 02:14:18;;;;;;;92.43;41.80;;;-2.50;99.90;;;;;;8370457;28;20203;-67
2023/12/01 02:18:33;;;;;;;73.73;37.87;;;-2.50;99.90;;;;;;8372233;28;20199;-68
2023/12/01 02:22:37;;;;;;;71.13;35.87;;;-2.60;99.90;;;;;;8366861;28;20187;-67
2023/12/01 02:26:38;;;;;;;56.07;30.53;;;-2.60;99.90;;;;;;8368274;28;20173;-67
2023/12/01 02:30:40;;;;;;;66.80;33.43;;;-2.60;99.90;;;;;;8372113;28;20218;-67
2023/12/01 02:34:45;;;;;;;74.73;38.27;;;-2.50;99.90;;;;;;8372872;28;20187;-65
2023/12/01 02:38:45;;;;;;;108.87;50.03;;;-2.50;99.90;;;;;;8366899;28;20225;-65
2023/12/01 02:42:50;;;;;;;94.40;43.63;;;-2.50;99.90;;;;;;8366041;28;20196;-66
2023/12/01 02:46:51;;;;;;;77.17;38.27;;;-2.50;99.90;;;;;;8363410;28;20191;-66
2023/12/01 02:50:51;;;;;;;77.03;38.60;;;-2.50;99.90;;;;;;8370593;28;20186;-66
2023/12/01 02:54:52;;;;;;;85.77;40.37;;;-2.60;99.90;;;;;;8368419;28;20197;-66
2023/12/01 02:58:53;;;;;;;91.50;41.40;;;-2.60;99.90;;;;;;8371923;28;20350;-66
2023/12/01 03:02:54;;;;;;;115.33;49.00;;;-2.60;99.90;;;;;;8368825;28;20233;-66
2023/12/01 03:06:55;;;;;;;124.37;57.73;;;-2.60;99.90;;;;;;8370437;28;20178;-66
2023/12/01 03:10:59;;;;;;;96.30;44.30;;;-2.70;99.90;;;;;;8362385;28;20190;-66
2023/12/01 03:15:00;;;;;;;67.20;35.93;;;-2.70;99.90;;;;;;8368099;28;20181;-65
2023/12/01 03:19:01;;;;;;;65.10;35.50;;;-2.70;99.90;;;;;;8365534;28;20585;-67
2023/12/01 03:23:02;;;;;;;69.10;35.80;;;-2.70;99.90;;;;;;8369084;28;20182;-66
2023/12/01 03:27:03;;;;;;;69.13;35.47;;;-2.80;99.90;;;;;;8368490;28;20178;-66
2023/12/01 03:31:04;;;;;;;68.53;34.17;;;-2.80;99.90;;;;;;8368646;28;20185;-66
2023/12/01 03:35:05;;;;;;;61.53;32.50;;;-2.70;99.90;;;;;;8366884;28;20182;-66
2023/12/01 03:39:06;;;;;;;57.00;31.70;;;-2.70;99.90;;;;;;8366689;28;20205;-67
2023/12/01 03:43:07;;;;;;;62.73;34.33;;;-2.60;99.90;;;;;;8371149;28;20182;-66
2023/12/01 03:47:08;;;;;;;63.97;33.40;;;-2.60;99.90;;;;;;8365360;28;20186;-62
2023/12/01 03:51:09;;;;;;;56.37;30.97;;;-2.50;99.90;;;;;;8359555;28;20223;-65
2023/12/01 03:55:13;;;;;;;65.73;32.33;;;-2.50;99.90;;;;;;8368458;28;20180;-64
2023/12/01 03:59:14;;;;;;;66.60;32.43;;;-2.50;99.90;;;;;;8371353;28;20218;-63
2023/12/01 04:03:15;;;;;;;72.50;37.33;;;-2.50;99.90;;;;;;8369529;28;20170;-63
2023/12/01 04:07:16;;;;;;;71.07;35.97;;;-2.50;99.90;;;;;;8368484;28;20303;-64
2023/12/01 04:11:16;;;;;;;70.50;36.27;;;-2.60;99.90;;;;;;8374426;28;20213;-63
2023/12/01 04:15:18;;;;;;;75.63;36.77;;;-2.60;99.90;;;;;;8376666;28;20208;-65
2023/12/01 04:19:19;;;;;;;68.87;35.60;;;-2.50;99.90;;;;;;8378024;28;20219;-63
2023/12/01 04:23:20;;;;;;;67.17;34.13;;;-2.50;99.90;;;;;;8374717;28;20633;-64
2023/12/01 04:27:21;;;;;;;64.53;34.20;;;-2.50;99.90;;;;;;8377081;28;20289;-63
2023/12/01 04:31:21;;;;;;;65.70;33.93;;;-2.40;99.90;;;;;;8375284;28;20180;-63
2023/12/01 04:35:25;;;;;;;55.87;31.87;;;-2.40;99.90;;;;;;8377354;28;20229;-63
2023/12/01 04:39:25;;;;;;;60.17;30.30;;;-2.40;99.90;;;;;;8371294;28;20327;-63
2023/12/01 04:43:30;;;;;;;54.33;30.90;;;-2.40;99.90;;;;;;8375358;28;20188;-64
2023/12/01 04:47:31;;;;;;;54.27;31.23;;;-2.40;99.90;;;;;;8372601;28;20256;-63
2023/12/01 04:51:32;;;;;;;58.43;32.10;;;-2.40;99.90;;;;;;8373980;28;20276;-63
2023/12/01 04:55:32;;;;;;;54.20;30.70;;;-2.30;99.90;;;;;;8373191;28;20185;-63
2023/12/01 04:59:33;;;;;;;45.97;27.80;;;-2.30;99.90;;;;;;8372994;28;20283;-64
2023/12/01 05:03:35;;;;;;;51.47;28.50;;;-2.30;99.90;;;;;;8367013;28;20207;-64
2023/12/01 05:07:36;;;;;;;47.20;28.37;;;-2.30;99.90;;;;;;8373326;28;20579;-63
2023/12/01 05:11:38;;;;;;;57.47;31.00;;;-2.20;99.90;;;;;;8373494;28;20189;-63
2023/12/01 05:15:39;;;;;;;65.70;36.00;;;-2.20;99.90;;;;;;8371053;28;20180;-63
2023/12/01 05:19:40;;;;;;;66.50;35.90;;;-2.20;99.90;;;;;;8372643;28;20300;-65
2023/12/01 05:23:40;;;;;;;66.30;39.73;;;-2.20;99.90;;;;;;8377693;28;20182;-64
2023/12/01 05:27:50;;;;;;;65.27;38.53;;;-2.20;99.90;;;;;;8375068;28;20233;-62
2023/12/01 05:31:51;;;;;;;64.40;37.17;;;-2.20;99.90;;;;;;8367821;28;20368;-63
2023/12/01 05:35:51;;;;;;;62.53;36.60;;;-2.20;99.90;;;;;;8375666;28;20198;-65
2023/12/01 05:39:52;;;;;;;57.40;33.20;;;-2.20;99.90;;;;;;8374131;28;20222;-64
2023/12/01 05:43:53;;;;;;;64.97;37.03;;;-2.20;99.90;;;;;;8370852;28;20180;-65
2023/12/01 05:47:56;;;;;;;65.10;37.13;;;-2.20;99.90;;;;;;8374244;28;20186;-62
2023/12/01 05:51:57;;;;;;;60.40;33.93;;;-2.20;99.90;;;;;;8369292;28;20217;-62
2023/12/01 05:55:58;;;;;;;49.07;28.27;;;-2.20;99.90;;;;;;8373260;28;20196;-63
2023/12/01 06:00:02;;;;;;;88.67;45.73;;;-2.20;99.90;;;;;;8377943;28;20210;-63
2023/12/01 06:04:03;;;;;;;72.93;38.67;;;-2.20;99.90;;;;;;8368757;28;20241;-63
2023/12/01 06:08:05;;;;;;;60.50;33.97;;;-2.10;99.90;;;;;;8373096;28;20186;-65
2023/12/01 06:12:06;;;;;;;89.63;48.27;;;-2.10;99.90;;;;;;8372615;28;20184;-63
2023/12/01 06:16:09;;;;;;;82.07;43.63;;;-2.10;99.90;;;;;;8365906;28;20246;-65
2023/12/01 06:20:19;;;;;;;81.50;44.33;;;-2.10;99.90;;;;;;8371143;28;20285;-65
2023/12/01 06:24:21;;;;;;;100.00;52.97;;;-2.10;99.90;;;;;;8371913;28;20186;-64
2023/12/01 06:28:23;;;;;;;85.63;48.23;;;-2.10;99.90;;;;;;8371914;28;20181;-62
2023/12/01 06:32:24;;;;;;;70.37;41.63;;;-2.10;99.90;;;;;;8370851;28;20211;-62
2023/12/01 06:36:25;;;;;;;73.80;41.67;;;-2.10;99.90;;;;;;8364934;28;20190;-63
2023/12/01 06:40:27;;;;;;;72.83;41.53;;;-2.10;99.90;;;;;;8364719;28;20212;-64
2023/12/01 06:44:30;;;;;;;76.40;42.87;;;-2.10;99.90;;;;;;8368449;28;20183;-64
2023/12/01 06:48:31;;;;;;;76.03;43.60;;;-2.10;99.90;;;;;;8365641;28;20184;-65
2023/12/01 06:52:33;;;;;;;70.73;41.30;;;-2.10;99.90;;;;;;8371512;28;20246;-65
2023/12/01 06:56:38;;;;;;;65.63;38.67;;;-2.10;99.90;;;;;;8366157;28;20195;-67
2023/12/01 07:00:39;;;;;;;70.87;39.03;;;-2.10;99.90;;;;;;8374447;28;20215;-67
2023/12/01 07:04:40;;;;;;;76.67;43.70;;;-2.10;99.90;;;;;;8374493;28;20187;-67
2023/12/01 07:08:41;;;;;;;64.60;38.63;;;-2.00;99.90;;;;;;8365102;28;20325;-67
2023/12/01 07:12:43;;;;;;;58.77;35.43;;;-2.10;99.90;;;;;;8369235;28;20447;-67
2023/12/01 07:16:49;;;;;;;47.83;30.23;;;-2.00;99.90;;;;;;8380511;28;20195;-66
2023/12/01 07:20:51;;;;;;;41.90;26.73;;;-2.10;99.90;;;;;;8372985;28;20288;-68
2023/12/01 07:24:54;;;;;;;47.33;27.60;;;-2.10;99.90;;;;;;8371670;28;20191;-67
2023/12/01 07:28:55;;;;;;;58.33;32.03;;;-2.00;99.90;;;;;;8369263;28;20187;-67
2023/12/01 07:32:59;;;;;;;49.87;29.27;;;-2.00;99.90;;;;;;8375265;28;20452;-67
2023/12/01 07:37:00;;;;;;;54.57;30.87;;;-1.90;99.90;;;;;;8369050;28;20369;-67
2023/12/01 07:41:07;;;;;;;79.43;41.40;;;-1.80;99.90;;;;;;8372585;28;20227;-67
2023/12/01 07:45:09;;;;;;;89.27;45.37;;;-1.60;99.90;;;;;;8365053;28;20270;-67
2023/12/01 07:49:14;;;;;;;81.63;45.47;;;-1.50;99.90;;;;;;8373066;28;20184;-67
2023/12/01 07:53:16;;;;;;;80.40;41.67;;;-1.50;99.90;;;;;;8372998;28;20244;-67
2023/12/01 07:57:18;;;;;;;68.57;38.57;;;-1.60;99.90;;;;;;8372140;28;20201;-66
2023/12/01 08:01:18;;;;;;;72.90;45.13;;;-1.50;99.90;;;;;;8374110;28;20262;-67
2023/12/01 08:05:20;;;;;;;70.07;43.10;;;-1.40;99.90;;;;;;8372107;28;20265;-67
2023/12/01 08:09:24;;;;;;;70.63;41.20;;;-1.30;99.90;;;;;;8373900;28;20189;-67
2023/12/01 08:13:25;;;;;;;88.80;47.67;;;-1.20;99.90;;;;;;8370370;28;20192;-67
2023/12/01 08:17:26;;;;;;;74.47;41.90;;;-1.10;99.90;;;;;;8378182;28;20424;-68
2023/12/01 08:21:27;;;;;;;70.20;38.23;;;-1.10;99.90;;;;;;8372347;28;20189;-67
2023/12/01 08:25:28;;;;;;;61.63;36.67;;;-1.10;99.90;;;;;;8373989;28;20284;-66
2023/12/01 08:29:28;;;;;;;81.27;42.93;;;-1.00;99.90;;;;;;8371461;28;20200;-67
2023/12/01 08:33:30;;;;;;;85.37;45.13;;;-0.90;99.90;;;;;;8376395;28;20280;-67
2023/12/01 08:37:31;;;;;;;74.47;43.47;;;-0.70;99.90;;;;;;8371493;28;20213;-67
2023/12/01 08:41:32;;;;;;;64.57;38.37;;;-0.70;99.90;;;;;;8374692;28;20197;-67
2023/12/01 08:45:33;;;;;;;72.53;43.57;;;-0.60;99.90;;;;;;8390074;28;20184;-66
2023/12/01 08:49:34;;;;;;;91.00;53.40;;;-0.40;99.90;;;;;;8369482;28;20209;-67
2023/12/01 08:53:35;;;;;;;76.93;44.17;;;-0.40;99.90;;;;;;8374195;28;20202;-67
2023/12/01 08:57:37;;;;;;;75.57;43.60;;;-0.40;99.90;;;;;;8371143;28;20197;-68
2023/12/01 09:01:37;;;;;;;69.87;41.00;;;-0.40;99.90;;;;;;8370756;28;20239;-67
2023/12/01 09:05:38;;;;;;;106.37;60.03;;;-0.50;99.90;;;;;;8375190;28;20216;-66
2023/12/01 09:09:42;;;;;;;87.53;50.03;;;-0.50;99.90;;;;;;8372770;28;20192;-66
2023/12/01 09:13:43;;;;;;;74.80;44.53;;;-0.40;99.90;;;;;;8367275;28;20185;-66
2023/12/01 09:17:43;;;;;;;76.37;42.90;;;-0.20;99.90;;;;;;8370846;28;20220;-66
2023/12/01 09:21:45;;;;;;;73.83;43.63;;;-0.10;99.90;;;;;;8375331;28;20182;-66
2023/12/01 09:25:46;;;;;;;83.10;50.20;;;0.00;99.90;;;;;;8371346;28;20173;-67
2023/12/01 09:29:46;;;;;;;97.17;56.93;;;0.00;99.90;;;;;;8371689;28;20234;-66
2023/12/01 09:33:47;;;;;;;147.10;79.27;;;0.10;99.90;;;;;;8369185;28;20193;-67
2023/12/01 09:37:48;;;;;;;144.00;78.20;;;0.20;99.90;;;;;;8369805;28;20201;-67
2023/12/01 09:41:50;;;;;;;111.23;59.30;;;0.20;99.90;;;;;;8373137;28;20202;-66
2023/12/01 09:45:52;;;;;;;80.80;47.93;;;0.30;99.90;;;;;;8372061;28;20252;-67
2023/12/01 09:49:52;;;;;;;76.10;44.67;;;0.40;99.90;;;;;;8369631;28;20185;-67
2023/12/01 09:53:54;;;;;;;79.77;47.50;;;0.30;99.90;;;;;;8368031;28;20193;-66
2023/12/01 09:57:56;;;;;;;82.80;47.67;;;0.40;99.90;;;;;;8368541;28;20213;-67
2023/12/01 10:01:58;;;;;;;93.57;50.50;;;0.40;99.90;;;;;;8372988;28;20310;-67
2023/12/01 10:06:00;;;;;;;79.40;46.70;;;0.50;99.90;;;;;;8370880;28;20182;-63
2023/12/01 10:10:23;;;;;;;79.80;45.43;;;0.60;99.90;;;;;;8358987;28;20201;-66
2023/12/01 10:14:25;;;;;;;114.43;57.30;;;0.60;99.90;;;;;;8367627;28;20177;-65
2023/12/01 10:18:26;;;;;;;82.40;48.43;;;0.70;99.90;;;;;;8369406;28;20271;-65
2023/12/01 10:22:27;;;;;;;119.73;61.83;;;0.80;99.90;;;;;;8369869;28;20189;-65
2023/12/01 10:26:31;;;;;;;102.57;54.97;;;0.80;58.20;;;;;;8372119;28;20317;-65
2023/12/01 10:30:32;;;;;;;90.77;50.93;;;0.90;85.60;;;;;;8368782;28;20193;-65
2023/12/01 10:34:33;;;;;;;99.07;53.50;;;0.90;41.70;;;;;;8373372;28;20181;-66
2023/12/01 10:38:36;;;;;;;85.23;46.67;;;1.00;62.10;;;;;;8365052;28;20308;-65
2023/12/01 10:42:36;;;;;;;89.43;51.10;;;1.00;1.00;;;;;;8371219;28;20205;-66
2023/12/01 10:46:39;;;;;;;98.77;55.50;;;0.90;1.00;;;;;;8370551;28;20181;-66
2023/12/01 10:50:42;;;;;;;78.00;47.03;;;0.90;4.90;;;;;;8363281;28;20270;-65
2023/12/01 10:54:46;;;;;;;84.73;47.73;;;0.80;41.90;;;;;;8369114;28;20241;-66
2023/12/01 10:58:53;;;;;;;84.57;49.13;;;0.70;57.10;;;;;;8373575;28;20214;-65
2023/12/01 11:02:54;;;;;;;95.20;52.97;;;0.70;99.30;;;;;;8370814;28;20197;-66
2023/12/01 11:07:22;;;;;;;80.87;45.63;;;0.70;99.90;;;;;;8376390;28;20253;-65
2023/12/01 11:11:42;;;;;;;85.63;48.53;;;0.80;58.70;;;;;;8367182;28;20186;-66
2023/12/01 11:15:48;;;;;;;86.13;49.87;;;0.70;68.40;;;;;;8365379;28;20189;-65
2023/12/01 11:19:50;;;;;;;82.33;47.97;;;0.80;57.30;;;;;;8371404;28;20269;-65
2023/12/01 11:23:51;;;;;;;87.20;48.10;;;0.80;99.90;;;;;;8367056;28;20176;-65
2023/12/01 11:27:52;;;;;;;86.80;46.13;;;0.90;99.90;;;;;;8367363;28;20200;-66
2023/12/01 11:31:53;;;;;;;86.17;47.47;;;0.80;73.90;;;;;;8366363;28;20185;-66
2023/12/01 11:36:26;;;;;;;82.87;46.90;;;0.80;99.90;;;;;;8366239;28;20191;-65
2023/12/01 11:40:27;;;;;;;86.83;49.63;;;0.80;99.90;;;;;;8368170;28;20221;-65
2023/12/01 11:44:37;;;;;;;64.27;41.03;;;0.80;99.90;;;;;;8359016;28;20212;-65
2023/12/01 11:48:39;;;;;;;78.30;43.43;;;0.80;99.90;;;;;;8362450;28;20178;-66
2023/12/01 11:52:44;;;;;;;71.17;41.17;;;0.80;94.20;;;;;;8366245;28;20205;-66
2023/12/01 11:56:50;;;;;;;71.77;41.50;;;0.80;83.10;;;;;;8370143;28;20215;-66
2023/12/01 12:00:51;;;;;;;107.07;53.90;;;0.70;99.90;;;;;;8364256;28;20218;-66
2023/12/01 12:04:53;;;;;;;116.33;56.67;;;0.80;99.90;;;;;;8366064;28;20181;-65
2023/12/01 12:08:54;;;;;;;73.07;43.50;;;0.80;99.90;;;;;;8369558;28;20566;-65
2023/12/01 12:12:55;;;;;;;69.70;39.67;;;0.80;99.90;;;;;;8363000;28;20347;-65
2023/12/01 12:16:56;;;;;;;75.17;44.83;;;0.90;99.90;;;;;;8366706;28;20193;-66
2023/12/01 12:21:02;;;;;;;113.93;51.63;;;0.90;99.90;;;;;;8369687;28;20523;-65
2023/12/01 12:25:03;;;;;;;98.90;42.13;;;0.80;99.90;;;;;;8361135;28;20182;-65
2023/12/01 12:29:05;;;;;;;69.93;37.93;;;0.70;99.90;;;;;;8369009;28;20240;-66
2023/12/01 12:33:06;;;;;;;78.30;42.37;;;0.70;99.90;;;;;;8369801;28;20200;-64
2023/12/01 12:37:11;;;;;;;85.10;43.83;;;0.60;99.90;;;;;;8373814;28;20235;-65
2023/12/01 12:41:41;;;;;;;103.87;51.77;;;0.60;99.90;;;;;;8371128;28;20208;-65
2023/12/01 12:45:43;;;;;;;89.97;45.47;;;0.50;99.90;;;;;;8362190;28;20194;-66
2023/12/01 12:49:45;;;;;;;124.17;54.83;;;0.50;99.90;;;;;;8373785;28;20189;-64
2023/12/01 12:53:55;;;;;;;66.77;37.57;;;0.40;99.90;;;;;;8370954;28;20197;-65
2023/12/01 12:57:56;;;;;;;55.77;30.37;;;0.30;99.90;;;;;;8377344;28;20253;-65
2023/12/01 13:01:57;;;;;;;54.63;31.17;;;0.20;99.90;;;;;;8373159;28;20205;-65
2023/12/01 13:05:58;;;;;;;53.57;31.57;;;0.10;99.90;;;;;;8370104;28;20188;-65
2023/12/01 13:09:59;;;;;;;68.57;38.07;;;0.00;99.90;;;;;;8370729;28;20205;-64
2023/12/01 13:13:59;;;;;;;56.20;35.10;;;-0.10;99.90;;;;;;8373864;28;20189;-65
2023/12/01 13:18:01;;;;;;;62.80;33.90;;;-0.10;99.90;;;;;;8369249;28;20208;-65
2023/12/01 13:22:02;;;;;;;51.87;29.27;;;-0.10;99.90;;;;;;8371396;28;20233;-65
2023/12/01 13:26:05;;;;;;;52.20;29.90;;;-0.10;99.90;;;;;;8369993;28;20193;-64
2023/12/01 13:30:07;;;;;;;50.50;30.23;;;-0.20;40.80;;;;;;8370123;28;20280;-64
2023/12/01 13:34:08;;;;;;;54.47;30.10;;;-0.20;28.40;;;;;;8365420;28;20193;-64
2023/12/01 13:38:09;;;;;;;49.13;26.63;;;-0.30;17.50;;;;;;8372324;28;20215;-64
2023/12/01 13:42:12;;;;;;;53.03;27.93;;;-0.30;1.00;;;;;;8366125;28;20193;-65
2023/12/01 13:46:12;;;;;;;46.07;27.07;;;-0.30;1.00;;;;;;8373645;28;20221;-65
2023/12/01 13:50:13;;;;;;;48.67;27.80;;;-0.40;1.00;;;;;;8374082;28;20238;-64
2023/12/01 13:54:14;;;;;;;51.93;30.37;;;-0.40;1.00;;;;;;8368318;28;20373;-65
2023/12/01 13:58:15;;;;;;;56.80;35.03;;;-0.50;1.00;;;;;;8371016;28;20193;-65
2023/12/01 14:02:18;;;;;;;58.67;32.80;;;-0.50;1.00;;;;;;8370682;28;20197;-63
2023/12/01 14:06:19;;;;;;;93.07;53.67;;;-0.50;1.00;;;;;;8369541;28;20177;-64
2023/12/01 14:10:22;;;;;;;73.53;42.07;;;-0.50;5.50;;;;;;8372925;28;20192;-64
2023/12/01 14:14:23;;;;;;;104.03;58.33;;;-0.50;1.00;;;;;;8369020;28;20186;-64
2023/12/01 14:18:23;;;;;;;85.53;47.63;;;-0.60;1.00;;;;;;8371341;28;20212;-65
2023/12/01 14:22:24;;;;;;;64.90;37.00;;;-0.60;1.00;;;;;;8367255;28;20174;-65
2023/12/01 14:26:25;;;;;;;57.20;33.67;;;-0.70;1.00;;;;;;8368681;28;20178;-65
2023/12/01 14:30:26;;;;;;;47.77;30.63;;;-0.70;1.00;;;;;;8372559;28;20259;-65
2023/12/01 14:34:27;;;;;;;48.50;29.77;;;-0.80;1.00;;;;;;8371333;28;20181;-65
2023/12/01 14:38:28;;;;;;;48.27;28.73;;;-0.80;1.00;;;;;;8370130;28;20216;-66
2023/12/01 14:42:30;;;;;;;60.60;34.87;;;-0.80;1.00;;;;;;8371504;28;20275;-66
2023/12/01 14:46:33;;;;;;;70.90;38.80;;;-0.80;1.00;;;;;;8372629;28;20197;-66
2023/12/01 14:50:34;;;;;;;61.53;37.73;;;-0.90;1.00;;;;;;8372585;28;20415;-66
2023/12/01 14:54:35;;;;;;;52.80;31.40;;;-0.90;1.00;;;;;;8378712;28;20347;-65
2023/12/01 14:58:38;;;;;;;61.73;35.50;;;-0.90;1.00;;;;;;8373842;28;20197;-65
2023/12/01 15:02:38;;;;;;;61.83;38.87;;;-0.90;1.00;;;;;;8370481;28;20325;-65
2023/12/01 15:06:39;;;;;;;89.17;43.67;;;-0.90;1.00;;;;;;8368447;28;20181;-65
2023/12/01 15:10:41;;;;;;;94.87;47.00;;;-1.00;1.00;;;;;;8368779;28;20288;-65
2023/12/01 15:14:42;;;;;;;83.30;41.73;;;-1.00;1.00;;;;;;8365700;28;20193;-66
2023/12/01 15:18:43;;;;;;;71.73;36.10;;;-1.00;1.00;;;;;;8367213;28;20223;-66
2023/12/01 15:22:44;;;;;;;81.83;40.10;;;-1.10;1.00;;;;;;8368146;28;20459;-66
2023/12/01 15:26:45;;;;;;;51.00;27.87;;;-1.10;1.00;;;;;;8367775;28;20195;-64
2023/12/01 15:30:46;;;;;;;50.60;29.67;;;-1.10;1.00;;;;;;8366241;28;20387;-65
2023/12/01 15:34:47;;;;;;;61.50;35.13;;;-1.20;1.00;;;;;;8369209;28;20185;-66
2023/12/01 15:38:47;;;;;;;71.30;44.23;;;-1.20;1.00;;;;;;8369497;28;20222;-66
2023/12/01 15:42:48;;;;;;;72.70;42.27;;;-1.20;1.00;;;;;;8370132;28;20197;-66
2023/12/01 15:46:49;;;;;;;71.77;42.20;;;-1.20;1.00;;;;;;8368341;28;20191;-66
2023/12/01 15:50:50;;;;;;;63.60;38.07;;;-1.20;1.00;;;;;;8366657;28;20197;-66
2023/12/01 15:54:51;;;;;;;58.13;36.73;;;-1.20;1.00;;;;;;8366439;28;20198;-67
2023/12/01 15:58:55;;;;;;;64.93;43.50;;;-1.30;1.00;;;;;;8373162;28;20214;-66
2023/12/01 16:02:56;;;;;;;100.90;49.17;;;-1.30;1.00;;;;;;8370884;28;20195;-66
2023/12/01 16:06:57;;;;;;;55.07;32.23;;;-1.30;26.50;;;;;;8367875;28;20224;-64
2023/12/01 16:10:58;;;;;;;102.70;43.20;;;-1.30;48.50;;;;;;8375320;28;20177;-64
2023/12/01 16:14:59;;;;;;;103.63;47.30;;;-1.30;42.70;;;;;;8371315;28;20185;-62
2023/12/01 16:19:00;;;;;;;95.53;48.57;;;-1.30;52.70;;;;;;8374852;28;20262;-63
2023/12/01 16:23:01;;;;;;;136.23;75.90;;;-1.30;59.60;;;;;;8377074;28;20186;-63
2023/12/01 16:27:02;;;;;;;52.33;32.20;;;-1.30;70.00;;;;;;8373460;28;20421;-62
2023/12/01 16:31:07;;;;;;;54.37;32.00;;;-1.30;82.00;;;;;;8372001;28;20193;-64
2023/12/01 16:35:10;;;;;;;56.07;31.87;;;-1.30;90.50;;;;;;8378249;28;20280;-65
2023/12/01 16:39:11;;;;;;;82.67;42.93;;;-1.30;94.00;;;;;;8370285;28;20295;-63
2023/12/01 16:43:12;;;;;;;73.27;42.33;;;-1.30;99.90;;;;;;8373680;28;20186;-64
2023/12/01 16:47:13;;;;;;;106.33;50.70;;;-1.40;99.90;;;;;;8362791;28;20276;-63
2023/12/01 16:51:14;;;;;;;77.50;38.93;;;-1.40;99.90;;;;;;8371898;28;20178;-64
2023/12/01 16:55:15;;;;;;;113.30;53.97;;;-1.40;99.90;;;;;;8374553;28;20196;-63
2023/12/01 16:59:16;;;;;;;111.83;58.03;;;-1.40;99.90;;;;;;8374691;28;20197;-62
2023/12/01 17:03:17;;;;;;;112.60;55.57;;;-1.40;99.90;;;;;;8372483;28;20257;-65
2023/12/01 17:07:20;;;;;;;137.27;64.30;;;-1.40;99.90;;;;;;8369658;28;20238;-64
2023/12/01 17:11:21;;;;;;;111.97;57.43;;;-1.40;99.90;;;;;;8373889;28;20178;-64
2023/12/01 17:15:21;;;;;;;85.73;44.17;;;-1.40;99.90;;;;;;8372274;28;20284;-65
2023/12/01 17:19:26;;;;;;;132.63;60.53;;;-1.40;99.90;;;;;;8363794;28;20207;-64
2023/12/01 17:23:26;;;;;;;132.90;59.60;;;-1.40;99.90;;;;;;8366457;28;20198;-63
2023/12/01 17:27:28;;;;;;;133.83;58.97;;;-1.40;99.90;;;;;;8373315;28;20177;-64
2023/12/01 17:31:29;;;;;;;75.37;38.53;;;-1.40;99.90;;;;;;8370679;28;20249;-64
2023/12/01 17:35:31;;;;;;;81.20;43.27;;;-1.40;95.80;;;;;;8365826;28;20268;-62
2023/12/01 17:39:32;;;;;;;75.23;39.83;;;-1.50;71.90;;;;;;8373208;28;20207;-66
2023/12/01 17:43:32;;;;;;;60.10;33.47;;;-1.50;82.20;;;;;;8372009;28;20215;-67
2023/12/01 17:47:33;;;;;;;68.93;36.50;;;-1.50;56.50;;;;;;8367988;28;20185;-67
2023/12/01 17:51:34;;;;;;;70.83;35.97;;;-1.50;32.60;;;;;;8369169;28;20335;-66
2023/12/01 17:55:35;;;;;;;80.53;41.93;;;-1.50;5.10;;;;;;8371038;28;20184;-64
2023/12/01 17:59:35;;;;;;;107.00;51.00;;;-1.50;7.50;;;;;;8374909;28;20236;-65
2023/12/01 18:03:36;;;;;;;108.93;52.13;;;-1.50;21.50;;;;;;8366964;28;20186;-65
2023/12/01 18:07:37;;;;;;;103.10;52.67;;;-1.50;21.30;;;;;;8369024;28;20193;-65
2023/12/01 18:11:42;;;;;;;85.57;47.27;;;-1.50;21.60;;;;;;8366552;28;20175;-66
2023/12/01 18:15:43;;;;;;;93.17;47.30;;;-1.60;19.30;;;;;;8372031;28;20192;-66
2023/12/01 18:19:47;;;;;;;65.83;35.80;;;-1.60;27.20;;;;;;8374811;28;20613;-66
2023/12/01 18:23:47;;;;;;;74.07;41.13;;;-1.60;1.60;;;;;;8364708;28;20195;-65
2023/12/01 18:27:48;;;;;;;95.03;48.50;;;-1.60;1.00;;;;;;8369550;28;20185;-66
2023/12/01 18:31:49;;;;;;;72.90;41.43;;;-1.70;1.00;;;;;;8367699;28;20188;-65
2023/12/01 18:35:50;;;;;;;63.40;35.30;;;-1.60;1.00;;;;;;8368504;28;20271;-66
2023/12/01 18:39:51;;;;;;;65.50;35.50;;;-1.60;1.00;;;;;;8368963;28;20214;-65
2023/12/01 18:43:52;;;;;;;84.93;45.23;;;-1.70;1.00;;;;;;8372608;28;20468;-66
2023/12/01 18:47:52;;;;;;;92.73;46.77;;;-1.70;1.00;;;;;;8372292;28;20216;-65
2023/12/01 18:51:53;;;;;;;87.80;44.70;;;-1.70;1.00;;;;;;8367288;28;20180;-66
2023/12/01 18:55:54;;;;;;;89.53;45.13;;;-1.70;1.00;;;;;;8373012;28;20177;-65
2023/12/01 18:59:55;;;;;;;88.77;44.30;;;-1.70;1.00;;;;;;8367369;28;20218;-66
2023/12/01 19:03:57;;;;;;;73.43;37.13;;;-1.70;1.00;;;;;;8364299;28;20214;-65
2023/12/01 19:07:58;;;;;;;89.63;44.27;;;-1.80;1.00;;;;;;8370219;28;20295;-62
2023/12/01 19:11:58;;;;;;;72.23;39.17;;;-1.80;1.00;;;;;;8362516;28;20192;-63
2023/12/01 19:15:59;;;;;;;63.83;34.00;;;-1.80;1.00;;;;;;8367429;28;20177;-64
2023/12/01 19:20:00;;;;;;;55.53;32.07;;;-1.80;1.00;;;;;;8366270;28;20202;-63
2023/12/01 19:24:01;;;;;;;68.03;37.10;;;-1.80;1.00;;;;;;8369719;28;20266;-62
2023/12/01 19:28:02;;;;;;;68.90;35.67;;;-1.80;1.00;;;;;;8369125;28;20510;-61
2023/12/01 19:32:03;;;;;;;60.17;33.63;;;-1.90;1.00;;;;;;8373690;28;20191;-63
2023/12/01 19:36:05;;;;;;;58.90;34.43;;;-1.80;1.00;;;;;;8368865;28;20195;-61
2023/12/01 19:40:07;;;;;;;64.33;32.83;;;-1.90;1.00;;;;;;8360320;28;20214;-63
2023/12/01 19:44:08;;;;;;;64.53;36.43;;;-1.90;1.00;;;;;;8379357;28;20187;-63
2023/12/01 19:48:10;;;;;;;74.90;38.83;;;-1.80;1.00;;;;;;8375412;28;20218;-62
2023/12/01 19:52:11;;;;;;;70.43;35.67;;;-1.90;1.00;;;;;;8379279;28;20187;-64
2023/12/01 19:56:13;;;;;;;58.53;30.93;;;-1.90;1.00;;;;;;8376958;28;20194;-62
2023/12/01 20:00:14;;;;;;;61.93;33.00;;;-1.90;1.00;;;;;;8379958;28;20378;-64
2023/12/01 20:04:15;;;;;;;92.63;38.23;;;-1.90;1.00;;;;;;8380531;28;20181;-62
2023/12/01 20:08:16;;;;;;;64.10;30.50;;;-1.90;1.00;;;;;;8373820;28;20222;-63
2023/12/01 20:12:17;;;;;;;155.33;54.60;;;-1.90;99.90;;;;;;8376339;28;20184;-62
2023/12/01 20:16:19;;;;;;;88.87;39.43;;;-1.90;99.90;;;;;;8376334;28;20196;-64
2023/12/01 20:20:20;;;;;;;52.43;25.07;;;-1.90;99.90;;;;;;8379355;28;20210;-63
2023/12/01 20:24:21;;;;;;;54.73;27.20;;;-1.90;99.90;;;;;;8379855;28;20271;-63
2023/12/01 20:28:22;;;;;;;56.57;26.30;;;-1.90;99.90;;;;;;8380167;28;20188;-64
2023/12/01 20:32:23;;;;;;;61.27;29.93;;;-2.00;99.90;;;;;;8377027;28;20184;-62